Time;durP1;ratioP1;P1;durP2;ratioP2;P2;SDS_P1;SDS_P2;PMS_P1;PMS_P2;Temp;Humidity;BMP_temperature;BMP_pressure;BME280_temperature;BME280_humidity;BME280_pressure;Samples;Min_cycle;Max_cycle;Signal;HPM_P1;HPM_P2
2022/01/05 00:01:15;;;;;;;;;4.25;2.00;;;;;4.54;91.04;100248.78;4998843;28;45443;-68
2022/01/05 00:03:40;;;;;;;;;3.00;1.75;;;;;4.43;92.51;100229.75;4998545;28;45582;-68
2022/01/05 00:06:06;;;;;;;;;4.25;2.75;;;;;4.42;92.31;100233.25;4998595;28;45370;-68
2022/01/05 00:08:31;;;;;;;;;4.00;2.00;;;;;4.45;nan;100234.06;4998512;28;45362;-68
2022/01/05 00:10:57;;;;;;;;;1.75;1.75;;;;;4.49;92.51;100242.75;4998470;28;45391;-68
2022/01/05 00:13:25;;;;;;;;;3.00;2.00;;;;;4.46;92.15;100243.63;4998003;28;46444;-68
2022/01/05 00:15:50;;;;;;;;;6.75;2.50;;;;;4.14;91.40;100202.13;4998368;28;45434;-68
2022/01/05 00:18:16;;;;;;;;;3.00;2.00;;;;;4.39;91.92;100261.94;4998591;28;45601;-68
2022/01/05 00:20:44;;;;;;;;;4.75;3.00;;;;;4.30;92.22;100239.41;4998624;28;45247;-68
2022/01/05 00:23:09;;;;;;;;;2.00;1.00;;;;;4.36;92.58;100255.84;4998236;28;45515;-68
2022/01/05 00:25:35;;;;;;;;;8.00;2.00;;;;;4.26;92.72;100233.31;4998078;28;45391;-68
2022/01/05 00:28:01;;;;;;;;;10.75;3.00;;;;;4.28;92.56;100234.16;4998001;28;45482;-68
2022/01/05 00:30:26;;;;;;;;;5.50;4.25;;;;;4.31;91.74;100246.31;4998563;28;45386;-68
2022/01/05 00:32:52;;;;;;;;;3.00;3.00;;;;;4.31;91.61;100243.72;4997796;28;45561;-68
2022/01/05 00:35:17;;;;;;;;;6.00;1.50;;;;;4.25;92.44;100251.56;4998119;28;45320;-69
2022/01/05 00:37:43;;;;;;;;;2.75;2.75;;;;;4.27;91.65;100249.81;4998207;28;45276;-68
2022/01/05 00:40:09;;;;;;;;;3.00;1.50;;;;;4.20;91.78;100246.38;4998237;28;45398;-69
2022/01/05 00:42:34;;;;;;;;;5.00;2.00;;;;;4.26;92.21;100261.13;4997645;28;46605;-69
2022/01/05 00:45:00;;;;;;;;;6.25;2.25;;;;;4.17;91.90;100239.44;4997893;28;45201;-68
2022/01/05 00:47:25;;;;;;;;;6.00;2.75;;;;;4.18;91.76;100250.72;4997809;28;45446;-69
2022/01/05 00:49:51;;;;;;;;;5.00;2.00;;;;;4.12;91.97;100254.22;4998184;28;45279;-69
2022/01/05 00:52:16;;;;;;;;;7.00;3.00;;;;;4.16;91.41;100257.69;4997842;28;46683;-69
2022/01/05 00:54:42;;;;;;;;;4.00;1.50;;;;;4.18;92.26;100261.13;4997885;28;45288;-68
2022/01/05 00:57:08;;;;;;;;;6.75;2.50;;;;;4.14;91.90;100251.63;4997782;28;45245;-68
2022/01/05 00:59:33;;;;;;;;;6.75;2.75;;;;;4.02;90.34;100234.28;4997862;28;45478;-68
2022/01/05 01:01:58;;;;;;;;;7.00;3.00;;;;;4.09;90.34;100251.63;4997691;28;46373;-68
2022/01/05 01:04:24;;;;;;;;;3.00;1.00;;;;;4.10;91.31;100253.38;4997694;28;45450;-68
2022/01/05 01:06:49;;;;;;;;;4.75;2.75;;;;;4.09;91.09;100263.78;4998028;28;45342;-68
2022/01/05 01:09:15;;;;;;;;;9.25;2.00;;;;;4.02;90.55;100252.53;4997710;28;45335;-68
2022/01/05 01:11:40;;;;;;;;;3.50;2.00;;;;;4.00;91.58;100257.75;4997450;28;46309;-68
2022/01/05 01:14:06;;;;;;;;;2.00;2.00;;;;;3.80;89.97;100218.75;4997674;28;45444;-68
2022/01/05 01:16:31;;;;;;;;;2.00;2.00;;;;;3.96;90.62;100257.75;4997620;28;45724;-68
2022/01/05 01:18:56;;;;;;;;;2.00;2.00;;;;;3.96;89.22;100258.63;4998074;28;45296;-68
2022/01/05 01:21:22;;;;;;;;;4.75;1.50;;;;;4.06;89.93;100272.47;4997420;28;46481;-68
2022/01/05 01:23:56;;;;;;;;;2.00;2.00;;;;;4.01;90.22;100269.03;4997414;28;45430;-68
2022/01/05 01:26:24;;;;;;;;;6.50;4.00;;;;;3.97;90.29;100262.09;4997497;28;45276;-68
2022/01/05 01:28:50;;;;;;;;;3.50;2.00;;;;;4.01;89.88;100280.31;4997634;28;45454;-68
2022/01/05 01:31:15;;;;;;;;;2.00;1.25;;;;;4.01;90.93;100276.88;4997364;28;45576;-68
2022/01/05 01:33:41;;;;;;;;;2.00;2.00;;;;;3.96;89.10;100270.78;4996981;28;45430;-68
2022/01/05 01:36:06;;;;;;;;;3.00;2.50;;;;;3.90;89.44;100271.66;4997324;28;45347;-68
2022/01/05 01:38:32;;;;;;;;;6.00;2.00;;;;;3.99;90.71;100283.78;4997808;28;45392;-68
2022/01/05 01:40:57;;;;;;;;;7.00;2.50;;;;;3.99;90.49;100286.41;4997178;28;45663;-68
2022/01/05 01:43:23;;;;;;;;;4.75;1.50;;;;;3.90;90.55;100268.22;4997218;28;45256;-69
2022/01/05 01:45:48;;;;;;;;;2.00;1.75;;;;;4.00;89.35;100291.59;4997282;28;45233;-68
2022/01/05 01:48:13;;;;;;;;;2.50;1.00;;;;;3.91;89.30;100273.41;4997242;28;45704;-68
2022/01/05 01:50:39;;;;;;;;;6.50;1.00;;;;;3.93;89.41;100279.47;4997248;28;46196;-68
2022/01/05 01:53:04;;;;;;;;;3.50;2.00;;;;;3.91;90.54;100280.38;4997129;28;45526;-68
2022/01/05 01:55:30;;;;;;;;;40.67;36.67;;;;;3.99;91.04;100294.22;4998802;28;45419;-68
2022/01/05 01:57:55;;;;;;;;;6.00;5.00;;;;;3.96;91.10;100291.63;5000588;28;45538;-68
2022/01/05 02:00:22;;;;;;;;;2.75;2.75;;;;;3.97;89.63;100299.44;5000092;28;47678;-68
2022/01/05 02:02:48;;;;;;;;;3.00;1.25;;;;;3.92;89.06;100302.91;4999161;28;45431;-68
2022/01/05 02:05:13;;;;;;;;;2.00;1.50;;;;;3.93;91.33;100304.66;5000251;28;45461;-68
2022/01/05 02:07:40;;;;;;;;;1.50;1.50;;;;;3.87;91.08;100297.72;5000507;28;45442;-68
2022/01/05 02:10:09;;;;;;;;;2.00;2.00;;;;;3.87;90.47;100310.75;5000114;28;46516;-68
2022/01/05 02:12:35;;;;;;;;;2.00;1.75;;;;;3.94;91.11;100315.06;5000084;28;45353;-69
2022/01/05 02:15:00;;;;;;;;;3.25;1.75;;;;;3.90;90.95;100328.09;5000265;28;45400;-68
2022/01/05 02:17:48;;;;;;;;;7.00;1.25;;;;;3.89;90.81;100327.22;5000445;28;45450;-68
2022/01/05 02:20:20;;;;;;;;;5.50;1.00;;;;;3.88;91.70;100327.22;5000083;28;46774;-68
2022/01/05 02:22:47;;;;;;;;;4.75;1.50;;;;;3.76;90.64;100313.38;4999838;28;45393;-68
2022/01/05 02:25:13;;;;;;;;;2.50;1.50;;;;;3.81;91.13;100337.66;5000117;28;45328;-68
2022/01/05 02:27:40;;;;;;;;;2.25;0.50;;;;;3.51;89.85;100294.31;4999871;28;45295;-68
2022/01/05 02:30:07;;;;;;;;;4.50;2.00;;;;;3.75;91.79;100337.69;4999985;28;46662;-68
2022/01/05 02:32:32;;;;;;;;;4.50;1.75;;;;;3.74;91.73;100328.13;4999177;28;45208;-68
2022/01/05 02:34:58;;;;;;;;;4.00;1.00;;;;;3.76;90.85;100329.00;4999687;28;45403;-68
2022/01/05 02:37:23;;;;;;;;;6.00;2.50;;;;;3.65;90.04;100318.59;5015233;28;45391;-68
2022/01/05 02:39:48;;;;;;;;;1.00;1.00;;;;;3.74;89.84;100343.75;4999790;28;46349;-68
2022/01/05 02:42:28;;;;;;;;;3.00;2.00;;;;;3.72;91.57;100350.72;4999700;28;45252;-68
2022/01/05 02:44:55;;;;;;;;;2.75;2.75;;;;;3.61;91.69;100337.69;4999708;28;45339;-69
2022/01/05 02:47:21;;;;;;;;;3.00;2.00;;;;;3.66;91.77;100354.19;4999894;28;45411;-68
2022/01/05 02:49:47;;;;;;;;;8.75;2.75;;;;;3.64;91.77;100347.25;4999489;28;45527;-68
2022/01/05 02:52:14;;;;;;;;;3.00;2.00;;;;;3.69;91.56;100345.50;4999556;28;45238;-69
2022/01/05 02:54:41;;;;;;;;;5.50;2.50;;;;;3.63;92.19;100340.28;4999603;28;45444;-68
2022/01/05 02:57:06;;;;;;;;;2.25;1.75;;;;;3.46;92.61;100311.69;4999641;28;45490;-68
2022/01/05 02:59:31;;;;;;;;;1.50;1.00;;;;;3.49;92.90;100314.28;4998893;28;45403;-68
2022/01/05 03:01:57;;;;;;;;;3.00;1.75;;;;;3.76;92.47;100359.38;4999226;28;45353;-69
2022/01/05 03:04:23;;;;;;;;;6.00;2.00;;;;;3.71;93.23;100364.59;4999748;28;45308;-68
2022/01/05 03:06:48;;;;;;;;;7.25;4.50;;;;;3.71;92.95;100364.59;4997891;28;45557;-68
2022/01/05 03:09:14;;;;;;;;;3.00;2.00;;;;;3.70;92.70;100362.00;4999414;28;45462;-68
2022/01/05 03:11:39;;;;;;;;;6.50;1.50;;;;;3.61;92.95;100365.47;4999176;28;45300;-68
2022/01/05 03:14:04;;;;;;;;;5.25;2.00;;;;;3.66;92.65;100371.56;4999365;28;45497;-68
2022/01/05 03:16:30;;;;;;;;;5.50;1.75;;;;;3.67;93.12;100373.25;4999729;28;45205;-68
2022/01/05 03:18:55;;;;;;;;;3.00;2.00;;;;;3.60;93.33;100356.81;4999089;28;45494;-68
2022/01/05 03:21:20;;;;;;;;;2.00;0.75;;;;;3.71;93.17;100366.34;4999385;28;45301;-68
2022/01/05 03:23:47;;;;;;;;;3.00;3.00;;;;;3.71;93.08;100376.75;4999206;28;45276;-68
2022/01/05 03:26:13;;;;;;;;;1.25;1.25;;;;;3.69;93.28;100386.28;4999453;28;45362;-69
2022/01/05 03:28:39;;;;;;;;;2.00;2.00;;;;;3.65;93.04;100395.84;4998953;28;45349;-68
2022/01/05 03:31:04;;;;;;;;;2.00;0.25;;;;;3.55;93.69;100370.69;4998878;28;45432;-68
2022/01/05 03:33:30;;;;;;;;;7.50;2.75;;;;;3.60;94.16;100377.63;4999014;28;45515;-68
2022/01/05 03:35:55;;;;;;;;;3.25;2.00;;;;;3.65;94.37;100388.88;4999276;28;45323;-68
2022/01/05 03:38:21;;;;;;;;;6.25;1.25;;;;;3.72;93.60;100405.38;4998817;28;45617;-68
2022/01/05 03:40:47;;;;;;;;;1.00;1.00;;;;;3.70;93.27;100396.69;4998814;28;45363;-68
2022/01/05 03:43:13;;;;;;;;;4.75;2.00;;;;;3.65;93.11;100406.25;4998881;28;45315;-68
2022/01/05 03:45:40;;;;;;;;;6.25;2.00;;;;;3.65;93.57;100411.47;4999248;28;45403;-68
2022/01/05 03:48:08;;;;;;;;;3.00;3.00;;;;;3.43;93.80;100371.56;4998524;28;46541;-68
2022/01/05 03:50:33;;;;;;;;;1.00;1.00;;;;;3.72;93.61;100422.72;4998651;28;45344;-68
2022/01/05 03:52:59;;;;;;;;;4.00;1.75;;;;;3.72;93.54;100421.00;4999033;28;45301;-68
2022/01/05 03:55:24;;;;;;;;;1.25;1.00;;;;;3.79;93.57;100430.56;4999032;28;45288;-69
2022/01/05 03:57:50;;;;;;;;;4.25;2.00;;;;;3.75;92.96;100410.59;4998605;28;46273;-69
2022/01/05 04:00:15;;;;;;;;;1.00;0.25;;;;;3.79;93.25;100414.03;4998507;28;45312;-69
2022/01/05 04:02:41;;;;;;;;;1.50;0.75;;;;;3.67;92.57;100407.09;4998479;28;45493;-68
2022/01/05 04:05:07;;;;;;;;;1.00;1.00;;;;;3.65;93.96;100411.47;4998836;28;45394;-68
2022/01/05 04:07:33;;;;;;;;;1.50;1.50;;;;;3.70;93.62;100422.72;4998200;28;46329;-68
2022/01/05 04:09:58;;;;;;;;;1.00;1.00;;;;;3.65;93.74;100414.91;4998754;28;45398;-68
2022/01/05 04:12:23;;;;;;;;;2.00;0.25;;;;;3.63;93.42;100414.06;4998267;28;45337;-69
2022/01/05 04:14:49;;;;;;;;;2.00;1.00;;;;;3.72;94.44;100427.94;4998560;28;45438;-68
2022/01/05 04:17:14;;;;;;;;;2.50;1.25;;;;;3.70;93.77;100424.47;4998262;28;46180;-68
2022/01/05 04:19:40;;;;;;;;;2.75;2.00;;;;;3.75;93.73;100433.16;4998138;28;45266;-68
2022/01/05 04:22:05;;;;;;;;;5.00;2.50;;;;;3.70;93.29;100421.88;4998527;28;45666;-68
2022/01/05 04:24:30;;;;;;;;;5.25;1.25;;;;;3.78;93.34;100440.97;4998499;28;45299;-69
2022/01/05 04:26:56;;;;;;;;;2.75;1.00;;;;;3.76;92.81;100432.28;4997954;28;46311;-68
2022/01/05 04:29:21;;;;;;;;;1.75;1.75;;;;;3.78;92.97;100444.44;4998163;28;45372;-68
2022/01/05 04:31:47;;;;;;;;;0.50;0.50;;;;;3.88;92.99;100449.63;4998227;28;45158;-68
2022/01/05 04:34:12;;;;;;;;;1.00;0.50;;;;;3.82;92.65;100432.31;4998260;28;47331;-68
2022/01/05 04:36:38;;;;;;;;;3.00;1.50;;;;;3.89;92.69;100452.25;4997921;28;45467;-68
2022/01/05 04:39:04;;;;;;;;;6.25;1.00;;;;;3.89;92.82;100462.66;4997785;28;45214;-68
2022/01/05 04:41:29;;;;;;;;;6.25;6.00;;;;;3.90;92.74;100466.16;4998254;28;45207;-68
2022/01/05 04:43:55;;;;;;;;;1.00;1.00;;;;;3.86;92.44;100460.06;4998089;28;45445;-68
2022/01/05 04:46:20;;;;;;;;;2.25;0.75;;;;;3.86;91.30;100464.41;4996748;28;46118;-69
2022/01/05 04:48:45;;;;;;;;;1.25;1.25;;;;;3.82;92.53;100460.94;4997820;28;45374;-68
2022/01/05 04:51:11;;;;;;;;;4.50;2.00;;;;;3.82;91.71;100466.16;4998017;28;45743;-69
2022/01/05 04:53:36;;;;;;;;;2.50;0.50;;;;;3.74;92.48;100466.13;4998279;28;45326;-68
2022/01/05 04:56:02;;;;;;;;;1.00;0.00;;;;;3.51;92.66;100432.25;4997807;28;45964;-68
2022/01/05 04:58:27;;;;;;;;;5.25;1.25;;;;;3.75;92.70;100475.69;4997674;28;45359;-68
2022/01/05 05:00:52;;;;;;;;;1.00;1.00;;;;;3.56;92.62;100468.72;4997904;28;45388;-68
2022/01/05 05:03:18;;;;;;;;;1.00;1.00;;;;;3.65;92.53;100473.94;4997828;28;45439;-68
2022/01/05 05:05:44;;;;;;;;;5.50;1.00;;;;;3.69;93.29;100485.22;4997800;28;46429;-69
2022/01/05 05:08:09;;;;;;;;;0.75;0.75;;;;;3.64;93.31;100470.44;4997625;28;45255;-68
2022/01/05 05:10:34;;;;;;;;;0.00;0.00;;;;;3.68;93.26;100473.09;4997857;28;45420;-69
2022/01/05 05:13:07;;;;;;;;;2.00;1.00;;;;;3.67;93.69;100482.63;4997836;28;45237;-68
2022/01/05 05:15:35;;;;;;;;;6.75;1.00;;;;;3.70;93.86;100492.16;4997300;28;47154;-68
2022/01/05 05:18:01;;;;;;;;;6.50;0.75;;;;;3.65;92.77;100494.78;4997500;28;45323;-68
2022/01/05 05:20:26;;;;;;;;;5.00;1.00;;;;;3.66;92.59;100488.72;4997614;28;45434;-68
2022/01/05 05:22:52;;;;;;;;;2.00;1.25;;;;;3.62;93.36;100481.75;4997906;28;45219;-69
2022/01/05 05:25:17;;;;;;;;;0.75;0.75;;;;;3.68;93.50;100497.38;4997426;28;46315;-68
2022/01/05 05:27:42;;;;;;;;;1.00;1.00;;;;;3.68;93.15;100491.31;4997267;28;45385;-69
2022/01/05 05:30:08;;;;;;;;;5.25;3.00;;;;;3.65;93.90;100499.97;4998626;28;45200;-69
2022/01/05 05:32:33;;;;;;;;;0.00;0.00;;;;;3.69;93.69;100499.13;5001125;28;45386;-68
2022/01/05 05:34:59;;;;;;;;;2.75;2.00;;;;;3.63;91.92;100506.91;5000963;28;46385;-68
2022/01/05 05:37:24;;;;;;;;;1.25;1.25;;;;;3.54;93.27;100497.34;4999684;28;45351;-68
2022/01/05 05:39:50;;;;;;;;;6.75;0.75;;;;;3.60;93.73;100509.50;4966120;28;45460;-68
2022/01/05 05:42:15;;;;;;;;;1.50;0.50;;;;;3.60;92.86;100515.59;4970376;28;45343;-68
2022/01/05 05:44:40;;;;;;;;;1.00;1.00;;;;;3.45;92.74;100492.97;4961409;28;45530;-68
2022/01/05 05:47:06;;;;;;;;;4.00;0.50;;;;;3.48;93.09;100505.16;4961603;28;45388;-69
2022/01/05 05:49:32;;;;;;;;;4.50;1.25;;;;;3.55;92.20;100513.84;4961479;28;45488;-68
2022/01/05 05:51:58;;;;;;;;;5.00;1.00;;;;;3.51;93.05;100510.34;4961677;28;45318;-68
2022/01/05 05:54:23;;;;;;;;;2.00;2.00;;;;;3.45;93.56;100499.94;4961346;28;46484;-68
2022/01/05 05:56:48;;;;;;;;;4.75;1.25;;;;;3.51;92.74;100514.69;4961179;28;45459;-68
2022/01/05 05:59:14;;;;;;;;;2.25;1.00;;;;;3.48;93.05;100518.16;4961471;28;45249;-68
2022/01/05 06:01:39;;;;;;;;;1.00;1.00;;;;;3.42;94.28;100512.94;4961469;28;45389;-69
2022/01/05 06:04:05;;;;;;;;;2.25;1.00;;;;;3.55;93.63;100527.72;4961249;28;46574;-68
2022/01/05 06:06:30;;;;;;;;;1.50;1.50;;;;;3.55;93.51;100527.72;4961462;28;45318;-68
2022/01/05 06:08:56;;;;;;;;;3.00;1.25;;;;;3.29;93.50;100488.63;4961274;28;45468;-68
2022/01/05 06:11:21;;;;;;;;;2.00;0.75;;;;;3.52;92.97;100535.53;4961453;28;45480;-68
2022/01/05 06:13:46;;;;;;;;;2.50;1.00;;;;;3.53;93.15;100545.09;4960811;28;45952;-68
2022/01/05 06:16:12;;;;;;;;;2.25;1.00;;;;;3.45;93.27;100529.41;4960996;28;45279;-68
2022/01/05 06:18:37;;;;;;;;;3.00;1.75;;;;;3.46;93.78;100546.78;4961261;28;45751;-68
2022/01/05 06:21:03;;;;;;;;;4.75;3.00;;;;;3.48;94.48;100545.03;4961396;28;45345;-68
2022/01/05 06:23:29;;;;;;;;;3.00;2.00;;;;;3.37;94.44;100538.06;4960964;28;45487;-68
2022/01/05 06:25:54;;;;;;;;;4.25;1.00;;;;;3.49;95.15;100564.16;4960740;28;45306;-68
2022/01/05 06:28:20;;;;;;;;;2.50;1.00;;;;;3.45;94.63;100554.59;4960893;28;45440;-68
2022/01/05 06:30:45;;;;;;;;;5.00;3.00;;;;;3.52;94.52;100565.91;4960849;28;45423;-68
2022/01/05 06:33:11;;;;;;;;;1.00;1.00;;;;;3.50;94.98;100558.09;4959756;28;46416;-68
2022/01/05 06:35:36;;;;;;;;;4.00;2.00;;;;;3.54;94.86;100564.16;4960747;28;45385;-67
2022/01/05 06:38:02;;;;;;;;;1.25;1.00;;;;;3.54;94.24;100561.56;4960772;28;45453;-68
2022/01/05 06:40:28;;;;;;;;;4.25;1.50;;;;;3.49;94.41;100557.19;4960684;28;45399;-68
2022/01/05 06:42:53;;;;;;;;;6.25;1.75;;;;;3.56;94.19;100570.22;4960475;28;46563;-68
2022/01/05 06:45:18;;;;;;;;;1.25;1.25;;;;;3.59;94.55;100576.34;4960620;28;45516;-68
2022/01/05 06:47:44;;;;;;;;;5.75;2.75;;;;;3.53;94.66;100565.00;4960910;28;45206;-68
2022/01/05 06:50:10;;;;;;;;;2.00;2.00;;;;;3.60;94.33;100579.78;4960780;28;45321;-67
2022/01/05 06:52:36;;;;;;;;;12.00;8.33;;;;;3.58;94.06;100589.34;4960339;28;46468;-68
2022/01/05 06:55:03;;;;;;;;;12.00;10.00;;;;;3.58;94.25;100585.00;4960414;28;45345;-67
2022/01/05 06:57:28;;;;;;;;;9.00;5.00;;;;;3.61;93.92;100597.16;4960403;28;45447;-67
2022/01/05 06:59:54;;;;;;;;;3.00;2.00;;;;;3.58;94.42;100595.41;4960366;28;45312;-67
2022/01/05 07:02:19;;;;;;;;;4.50;2.25;;;;;3.55;93.90;100592.81;4960104;28;45445;-67
2022/01/05 07:04:44;;;;;;;;;4.75;1.00;;;;;3.60;94.70;100587.59;4960414;28;45233;-67
2022/01/05 07:07:10;;;;;;;;;3.00;1.75;;;;;3.61;95.25;100591.94;4960339;28;45624;-67
2022/01/05 07:09:35;;;;;;;;;1.75;1.75;;;;;3.76;94.01;100604.13;4960676;28;45279;-67
2022/01/05 07:12:01;;;;;;;;;3.00;1.00;;;;;3.75;93.75;100598.06;4960146;28;45459;-67
2022/01/05 07:14:26;;;;;;;;;5.00;1.00;;;;;3.74;94.46;100617.16;4959823;28;45305;-67
2022/01/05 07:16:52;;;;;;;;;3.50;2.00;;;;;3.71;94.61;100606.75;4960045;28;45692;-68
2022/01/05 07:19:19;;;;;;;;;2.50;1.00;;;;;3.67;94.75;100602.38;4960438;28;45292;-67
2022/01/05 07:21:46;;;;;;;;;1.00;1.00;;;;;3.74;94.71;100614.56;4959846;28;46206;-67
2022/01/05 07:24:17;;;;;;;;;5.75;2.50;;;;;3.69;93.01;100602.38;4960181;28;45253;-70
2022/01/05 07:26:43;;;;;;;;;1.75;0.00;;;;;3.78;94.12;100625.88;4959768;28;45405;-67
2022/01/05 07:29:08;;;;;;;;;5.50;1.50;;;;;3.80;94.68;100631.94;4959990;28;45367;-69
2022/01/05 07:31:34;;;;;;;;;2.00;2.00;;;;;3.61;94.35;100585.00;4960063;28;45342;-69
2022/01/05 07:33:59;;;;;;;;;2.00;2.00;;;;;3.83;94.08;100635.44;4959691;28;45400;-69
2022/01/05 07:36:25;;;;;;;;;7.50;3.75;;;;;3.83;93.60;100630.22;4960253;28;45447;-68
2022/01/05 07:38:50;;;;;;;;;6.25;2.25;;;;;3.81;93.78;100631.94;4959893;28;45457;-67
2022/01/05 07:41:16;;;;;;;;;3.75;2.00;;;;;3.97;93.90;100643.28;4959701;28;45424;-69
2022/01/05 07:43:41;;;;;;;;;5.50;2.75;;;;;3.98;93.33;100654.59;4959488;28;45332;-69
2022/01/05 07:46:06;;;;;;;;;1.50;1.00;;;;;3.99;93.66;100657.19;4959904;28;45242;-69
2022/01/05 07:48:32;;;;;;;;;3.75;2.00;;;;;3.85;93.64;100638.03;4959617;28;45458;-68
2022/01/05 07:50:57;;;;;;;;;4.75;3.25;;;;;3.89;94.10;100663.19;4976787;28;46475;-73
2022/01/05 07:53:23;;;;;;;;;1.25;1.00;;;;;3.94;93.54;100663.25;4974833;28;45396;-67
2022/01/05 07:55:48;;;;;;;;;2.00;0.75;;;;;3.56;94.51;100596.25;4978937;28;45249;-67
2022/01/05 07:58:14;;;;;;;;;7.25;5.00;;;;;3.93;93.73;100670.16;4979002;28;45329;-67
2022/01/05 08:00:40;;;;;;;;;2.00;2.00;;;;;3.92;94.02;100670.16;4978526;28;45375;-67
2022/01/05 08:03:05;;;;;;;;;6.50;3.00;;;;;3.88;94.47;100663.19;4978350;28;45293;-67
2022/01/05 08:05:31;;;;;;;;;6.50;2.50;;;;;3.93;94.06;100679.72;4978768;28;45400;-67
2022/01/05 08:07:57;;;;;;;;;20.33;18.00;;;;;3.87;93.36;100677.13;4978998;28;45368;-67
2022/01/05 08:10:22;;;;;;;;;3.00;2.00;;;;;3.96;93.48;100679.75;4978355;28;46653;-67
2022/01/05 08:12:48;;;;;;;;;7.50;4.00;;;;;3.82;93.90;100646.72;4978644;28;45423;-67
2022/01/05 08:15:15;;;;;;;;;3.50;2.00;;;;;4.08;93.74;100676.28;4978130;28;45448;-67
2022/01/05 08:17:41;;;;;;;;;5.25;1.75;;;;;4.22;93.51;100690.22;4978582;28;45669;-67
2022/01/05 08:20:10;;;;;;;;;2.25;2.25;;;;;4.18;92.71;100678.06;4975851;28;46581;-67
2022/01/05 08:22:46;;;;;;;;;5.00;2.00;;;;;3.95;92.56;100639.81;4978074;28;45405;-67
2022/01/05 08:25:15;;;;;;;;;5.00;3.00;;;;;4.27;93.19;100695.44;4978393;28;45349;-67
2022/01/05 08:27:46;;;;;;;;;5.75;2.00;;;;;4.32;92.95;100704.16;4978572;28;45400;-67
2022/01/05 08:30:38;;;;;;;;;4.00;2.00;;;;;4.30;91.63;100703.31;4977914;28;47210;-67
2022/01/05 08:33:05;;;;;;;;;15.00;12.00;;;;;4.27;92.71;100703.25;4976817;28;45415;-68
2022/01/05 08:35:31;;;;;;;;;3.50;3.00;;;;;4.33;92.44;100708.50;4977583;28;45441;-68
2022/01/05 08:37:57;;;;;;;;;5.50;3.00;;;;;4.32;92.39;100704.16;4976530;28;45391;-68
2022/01/05 08:40:24;;;;;;;;;4.75;3.00;;;;;4.46;92.48;100719.81;4977634;28;46125;-68
2022/01/05 08:42:51;;;;;;;;;11.00;4.25;;;;;4.53;92.04;100726.78;4977832;28;45400;-68
2022/01/05 08:45:20;;;;;;;;;1.75;0.00;;;;;4.59;91.84;100734.63;4978041;28;45420;-67
2022/01/05 08:47:48;;;;;;;;;7.25;2.50;;;;;4.55;90.54;100709.41;4978065;28;45446;-68
2022/01/05 08:50:17;;;;;;;;;3.75;3.00;;;;;4.67;90.95;100739.84;4977727;28;45545;-68
2022/01/05 08:52:44;;;;;;;;;6.50;2.75;;;;;4.72;91.12;100735.53;4978232;28;45392;-68
2022/01/05 08:55:11;;;;;;;;;2.50;2.50;;;;;4.77;91.14;100732.91;4977907;28;45376;-68
2022/01/05 08:57:37;;;;;;;;;2.75;2.50;;;;;4.78;91.26;100739.84;4978253;28;45319;-70
2022/01/05 09:00:04;;;;;;;;;6.50;6.00;;;;;4.84;90.59;100734.66;4977458;28;46233;-68
2022/01/05 09:02:30;;;;;;;;;6.25;2.25;;;;;4.71;89.64;100707.69;4977579;28;45557;-68
2022/01/05 09:04:55;;;;;;;;;6.75;3.00;;;;;5.02;89.26;100715.50;4977850;28;45420;-69
2022/01/05 09:07:21;;;;;;;;;6.00;3.00;;;;;5.19;88.70;100745.09;4978138;28;45308;-69
2022/01/05 09:09:46;;;;;;;;;7.00;4.50;;;;;5.21;88.73;100748.56;4977755;28;46337;-68
2022/01/05 09:12:12;;;;;;;;;5.50;3.00;;;;;5.35;88.83;100764.22;4977680;28;45285;-69
2022/01/05 09:14:40;;;;;;;;;8.25;4.00;;;;;5.31;87.51;100779.88;4977156;28;45332;-69
2022/01/05 09:17:06;;;;;;;;;6.25;4.50;;;;;5.47;88.45;100778.13;4977884;28;45458;-69
2022/01/05 09:19:33;;;;;;;;;7.25;4.00;;;;;5.52;86.30;100784.22;4977273;28;45381;-69
2022/01/05 09:21:58;;;;;;;;;3.75;3.75;;;;;5.45;87.51;100772.91;4977426;28;45385;-69
2022/01/05 09:24:25;;;;;;;;;6.00;3.50;;;;;5.30;86.97;100747.69;4977742;28;45307;-69
2022/01/05 09:26:51;;;;;;;;;4.75;3.00;;;;;5.45;85.92;100778.13;4977841;28;45340;-69
2022/01/05 09:29:17;;;;;;;;;5.25;4.00;;;;;5.61;87.08;100788.56;4977602;28;45670;-69
2022/01/05 09:31:43;;;;;;;;;17.67;10.67;;;;;5.42;86.19;100767.69;4977680;28;45330;-69
2022/01/05 09:34:08;;;;;;;;;6.00;4.00;;;;;5.65;86.18;100795.50;4977536;28;45471;-69
2022/01/05 09:36:39;;;;;;;;;5.50;4.00;;;;;5.71;86.56;100814.66;4978028;28;45303;-69
2022/01/05 09:41:59;;;;;;;;;6.50;6.00;;;;;5.89;85.61;100810.25;4977328;28;45442;-69
2022/01/05 09:44:31;;;;;;;;;9.00;1.00;;;;;5.92;85.05;100810.25;4975602;28;45393;-69
2022/01/05 09:47:11;;;;;;;;;16.25;10.25;;;;;6.11;85.28;100824.16;4977791;28;45423;-69
2022/01/05 09:49:39;;;;;;;;;12.75;7.00;;;;;6.86;82.26;100822.94;4977462;28;46318;-69
2022/01/05 09:52:08;;;;;;;;;5.50;4.50;;;;;7.80;76.02;100830.06;4977352;28;45489;-69
2022/01/05 09:54:35;;;;;;;;;5.00;3.00;;;;;8.48;73.35;100808.34;4977554;28;45384;-69
2022/01/05 09:57:01;;;;;;;;;3.50;3.00;;;;;8.50;74.11;100821.44;4977767;28;45438;-69
2022/01/05 09:59:29;;;;;;;;;6.50;4.25;;;;;8.20;73.39;100794.66;4977074;28;46583;-69
2022/01/05 10:01:54;;;;;;;;;16.00;3.25;;;;;8.27;74.64;100825.16;4977328;28;45287;-69
2022/01/05 10:04:20;;;;;;;;;4.50;4.25;;;;;8.05;77.88;100823.69;4977342;28;45197;-69
2022/01/05 10:06:47;;;;;;;;;5.00;3.75;;;;;7.86;75.86;100842.25;4977633;28;45350;-69
2022/01/05 10:09:12;;;;;;;;;9.00;6.25;;;;;7.67;76.97;100852.03;4977125;28;47408;-69
2022/01/05 10:11:37;;;;;;;;;4.25;4.25;;;;;7.54;76.72;100846.03;4977121;28;45365;-69
2022/01/05 10:14:03;;;;;;;;;10.00;7.50;;;;;7.48;76.55;100853.94;4977423;28;45335;-69
2022/01/05 10:16:28;;;;;;;;;8.25;5.00;;;;;7.22;76.53;100818.34;4978607;28;45324;-69
2022/01/05 10:18:54;;;;;;;;;8.75;3.50;;;;;7.44;76.63;100865.31;4980614;28;46264;-69
2022/01/05 10:21:19;;;;;;;;;8.00;6.00;;;;;7.29;77.24;100856.69;4980448;28;45422;-69
2022/01/05 10:23:53;;;;;;;;;9.00;5.00;;;;;7.32;79.23;100867.16;4980545;28;45320;-69
2022/01/05 10:26:39;;;;;;;;;9.50;4.75;;;;;7.32;78.42;100863.69;4980840;28;45375;-69
2022/01/05 10:29:15;;;;;;;;;5.00;5.00;;;;;7.31;78.81;100873.25;4980309;28;46436;-69
2022/01/05 10:31:41;;;;;;;;;7.25;3.00;;;;;7.25;79.67;100859.38;4980377;28;45398;-69
2022/01/05 10:34:21;;;;;;;;;9.00;3.75;;;;;7.26;80.15;100872.44;4998481;28;45446;-69
2022/01/05 10:36:49;;;;;;;;;3.00;2.00;;;;;7.28;80.10;100878.53;5000232;28;45421;-69
2022/01/05 10:39:18;;;;;;;;;15.75;7.50;;;;;7.27;79.16;100875.91;4999822;28;45359;-69
2022/01/05 10:41:44;;;;;;;;;7.75;5.25;;;;;7.27;78.90;100861.06;4999534;28;45292;-69
2022/01/05 10:44:19;;;;;;;;;8.00;4.00;;;;;7.31;79.11;100867.16;4999953;28;45452;-69
2022/01/05 10:46:46;;;;;;;;;6.25;3.00;;;;;7.30;78.58;100861.06;4999939;28;45476;-69
2022/01/05 10:49:25;;;;;;;;;8.00;4.00;;;;;7.34;78.96;100879.38;4999425;28;45329;-69
2022/01/05 10:51:51;;;;;;;;;3.50;3.00;;;;;7.44;80.47;100881.91;4998147;28;45343;-69
2022/01/05 10:54:19;;;;;;;;;7.25;3.00;;;;;7.46;79.58;100887.13;4999904;28;45232;-69
2022/01/05 10:56:44;;;;;;;;;3.50;2.25;;;;;7.47;80.01;100891.50;4999992;28;45478;-69
2022/01/05 10:59:11;;;;;;;;;9.75;6.50;;;;;7.46;79.07;100898.50;4999451;28;45410;-69
2022/01/05 11:01:36;;;;;;;;;5.00;4.00;;;;;7.32;79.74;100895.97;4999629;28;45430;-69
2022/01/05 11:04:16;;;;;;;;;8.00;2.75;;;;;7.25;80.24;100901.25;4999561;28;45312;-69
2022/01/05 11:07:03;;;;;;;;;7.75;6.50;;;;;7.20;81.80;100901.25;4999709;28;45541;-69
2022/01/05 11:09:31;;;;;;;;;2.75;1.00;;;;;7.14;80.85;100901.31;4999169;28;46644;-69
2022/01/05 11:11:58;;;;;;;;;5.75;3.00;;;;;7.07;81.59;100897.88;4999452;28;45473;-70
2022/01/05 11:14:32;;;;;;;;;8.00;3.75;;;;;6.97;82.17;100885.69;4999543;28;45395;-69
2022/01/05 11:17:00;;;;;;;;;12.50;5.25;;;;;7.08;81.84;100902.22;4999419;28;45279;-69
2022/01/05 11:19:27;;;;;;;;;3.25;3.25;;;;;7.17;82.49;100908.28;4999419;28;46192;-69
2022/01/05 11:21:57;;;;;;;;;5.00;2.25;;;;;7.21;82.06;100920.50;4999275;28;45264;-69
2022/01/05 11:24:24;;;;;;;;;3.00;3.00;;;;;7.23;80.20;100901.28;4999467;28;45395;-69
2022/01/05 11:26:50;;;;;;;;;4.50;2.00;;;;;7.41;80.53;100917.75;4999074;28;45482;-69
2022/01/05 11:29:16;;;;;;;;;5.00;2.00;;;;;7.46;79.96;100911.59;4998363;28;46533;-70
2022/01/05 11:31:44;;;;;;;;;7.00;4.00;;;;;7.57;79.57;100913.25;4999168;28;45382;-70
2022/01/05 11:34:10;;;;;;;;;9.00;3.00;;;;;7.65;79.27;100928.03;4998961;28;45490;-70